createdAt,value
2022-10-02T00:01:37.544Z,59.67
2022-10-02T00:04:03.978Z,59.91
2022-10-02T00:06:30.384Z,59.89
2022-10-02T00:08:56.758Z,59.75
2022-10-02T00:11:23.121Z,59.91
2022-10-02T00:13:49.483Z,59.88
2022-10-02T00:16:15.883Z,59.88
2022-10-02T00:18:42.272Z,59.76
2022-10-02T00:21:08.633Z,59.94
2022-10-02T00:23:34.991Z,59.75
2022-10-02T00:26:01.356Z,59.70
2022-10-02T00:28:27.752Z,59.84
2022-10-02T00:30:54.233Z,59.61
2022-10-02T00:33:20.593Z,59.81
2022-10-02T00:35:46.957Z,59.72
2022-10-02T00:38:13.329Z,59.77
2022-10-02T00:40:39.693Z,59.66
2022-10-02T00:43:06.057Z,59.77
2022-10-02T00:45:32.474Z,59.67
2022-10-02T00:47:58.890Z,59.58
2022-10-02T00:50:25.256Z,59.71
2022-10-02T00:52:51.630Z,59.75
2022-10-02T00:55:18.001Z,59.65
2022-10-02T00:57:44.356Z,59.52
2022-10-02T01:00:10.730Z,59.52
2022-10-02T01:02:37.089Z,59.40
2022-10-02T01:05:03.456Z,59.69
2022-10-02T01:07:29.813Z,59.44
2022-10-02T01:09:56.188Z,59.30
2022-10-02T01:12:22.558Z,59.36
2022-10-02T01:14:48.941Z,59.53
2022-10-02T01:17:15.309Z,59.35
2022-10-02T01:19:41.674Z,59.25
2022-10-02T01:22:08.046Z,59.27
2022-10-02T01:24:34.404Z,59.47
2022-10-02T01:27:00.777Z,59.24
2022-10-02T01:29:27.129Z,59.13
2022-10-02T01:31:53.566Z,59.29
2022-10-02T01:34:19.955Z,59.04
2022-10-02T01:36:46.337Z,59.23
2022-10-02T01:39:12.702Z,59.15
2022-10-02T01:41:39.078Z,59.20
2022-10-02T01:44:05.439Z,59.17
2022-10-02T01:46:31.800Z,59.09
2022-10-02T01:48:58.152Z,58.97
2022-10-02T01:51:24.530Z,58.92
2022-10-02T01:53:50.893Z,58.76
2022-10-02T01:56:17.254Z,58.87
2022-10-02T01:58:43.716Z,58.88
2022-10-02T02:01:10.194Z,59.03
2022-10-02T02:03:36.634Z,58.94
2022-10-02T02:06:03.095Z,59.04
2022-10-02T02:08:29.454Z,58.83
2022-10-02T02:10:55.814Z,58.85
2022-10-02T02:13:22.187Z,58.86
2022-10-02T02:15:48.549Z,58.78
2022-10-02T02:18:14.912Z,58.80
2022-10-02T02:20:41.282Z,58.86
2022-10-02T02:23:07.648Z,58.90
2022-10-02T02:25:34.013Z,58.87
2022-10-02T02:28:00.400Z,58.89
2022-10-02T02:30:26.794Z,58.74
2022-10-02T02:32:53.173Z,58.76
2022-10-02T02:35:19.549Z,58.63
2022-10-02T02:37:45.909Z,58.56
2022-10-02T02:40:12.275Z,58.64
2022-10-02T02:42:38.644Z,58.64
2022-10-02T02:45:05.002Z,58.71
2022-10-02T02:47:31.360Z,58.70
2022-10-02T02:49:57.717Z,58.65
2022-10-02T02:52:24.080Z,58.67
2022-10-02T02:54:50.447Z,58.72
2022-10-02T02:57:16.800Z,58.62
2022-10-02T02:59:43.169Z,58.48
2022-10-02T03:02:09.607Z,58.64
2022-10-02T03:04:35.988Z,58.66
2022-10-02T03:07:02.343Z,58.58
2022-10-02T03:09:28.708Z,58.46
2022-10-02T03:11:55.077Z,58.56
2022-10-02T03:14:21.444Z,58.48
2022-10-02T03:16:47.820Z,58.52
2022-10-02T03:19:14.185Z,58.58
2022-10-02T03:21:40.559Z,58.46
2022-10-02T03:24:06.916Z,58.59
2022-10-02T03:26:33.474Z,58.41
2022-10-02T03:29:00.055Z,58.54
2022-10-02T03:31:26.524Z,58.46
2022-10-02T03:33:52.982Z,58.33
2022-10-02T03:36:19.343Z,58.40
2022-10-02T03:38:50.126Z,58.40
2022-10-02T03:41:23.328Z,58.41
2022-10-02T03:43:49.680Z,58.26
2022-10-02T03:46:16.082Z,58.34
2022-10-02T03:48:42.487Z,58.39
2022-10-02T03:51:08.907Z,58.40
2022-10-02T03:53:35.279Z,58.37
2022-10-02T03:56:01.646Z,58.33
2022-10-02T03:58:28.021Z,58.35
2022-10-02T04:00:54.389Z,58.22
2022-10-02T04:03:20.777Z,58.26
2022-10-02T04:05:47.174Z,58.32
2022-10-02T04:08:13.532Z,58.27
2022-10-02T04:10:39.899Z,58.05
2022-10-02T04:13:06.273Z,58.18
2022-10-02T04:15:32.647Z,58.17
2022-10-02T04:17:59.276Z,58.21
2022-10-02T04:20:25.656Z,58.29
2022-10-02T04:22:52.017Z,58.17
2022-10-02T04:25:18.395Z,58.26
2022-10-02T04:27:44.763Z,58.20
2022-10-02T04:30:11.124Z,58.16
2022-10-02T04:32:37.488Z,58.12
2022-10-02T04:35:03.846Z,58.10
2022-10-02T04:37:30.195Z,58.10
2022-10-02T04:39:56.640Z,58.12
2022-10-02T04:42:22.995Z,58.09
2022-10-02T04:44:49.360Z,58.11
2022-10-02T04:47:15.734Z,58.07
2022-10-02T04:49:42.100Z,58.09
2022-10-02T04:52:08.467Z,58.12
2022-10-02T04:54:34.848Z,58.21
2022-10-02T04:57:01.213Z,58.10
2022-10-02T04:59:27.582Z,58.08
2022-10-02T05:01:54.012Z,58.07
2022-10-02T05:04:20.443Z,58.13
2022-10-02T05:06:46.801Z,58.17
2022-10-02T05:09:13.156Z,57.97
2022-10-02T05:11:39.536Z,57.97
2022-10-02T05:14:05.902Z,57.92
2022-10-02T05:16:32.278Z,58.04
2022-10-02T05:18:58.635Z,57.99
2022-10-02T05:21:25.000Z,58.06
2022-10-02T05:23:51.374Z,57.99
2022-10-02T05:26:17.742Z,57.94
2022-10-02T05:28:44.111Z,57.98
2022-10-02T05:31:10.510Z,57.93
2022-10-02T05:33:36.887Z,57.98
2022-10-02T05:36:03.257Z,57.89
2022-10-02T05:38:29.614Z,57.86
2022-10-02T05:40:55.974Z,57.90
2022-10-02T05:43:22.355Z,57.84
2022-10-02T05:45:48.726Z,58.07
2022-10-02T05:48:15.122Z,57.72
2022-10-02T05:50:41.493Z,57.87
2022-10-02T05:53:07.848Z,57.98
2022-10-02T05:55:34.201Z,57.90
2022-10-02T05:58:00.562Z,57.86
2022-10-02T06:00:26.926Z,57.97
2022-10-02T06:02:53.293Z,58.16
2022-10-02T06:05:19.653Z,58.13
2022-10-02T06:07:46.023Z,58.07
2022-10-02T06:10:12.402Z,58.39
2022-10-02T06:12:38.771Z,57.94
2022-10-02T06:15:05.155Z,58.04
2022-10-02T06:17:31.514Z,57.89
2022-10-02T06:20:02.340Z,57.69
2022-10-02T06:22:29.799Z,58.00
2022-10-02T06:24:56.182Z,57.98
2022-10-02T06:27:22.541Z,58.00
2022-10-02T06:29:48.898Z,58.02
2022-10-02T06:32:15.270Z,57.76
2022-10-02T06:34:44.645Z,58.00
2022-10-02T06:37:14.122Z,58.11
2022-10-02T06:39:40.490Z,58.13
2022-10-02T06:42:06.850Z,58.33
2022-10-02T06:44:33.238Z,58.16
2022-10-02T06:46:59.598Z,58.35
2022-10-02T06:49:25.968Z,58.23
2022-10-02T06:51:52.342Z,58.13
2022-10-02T06:54:18.693Z,58.17
2022-10-02T06:56:45.063Z,58.05
2022-10-02T06:59:11.427Z,58.05
2022-10-02T07:01:37.798Z,58.01
2022-10-02T07:04:04.164Z,58.05
2022-10-02T07:06:30.530Z,58.05
2022-10-02T07:08:56.892Z,57.88
2022-10-02T07:11:23.276Z,57.93
2022-10-02T07:13:49.624Z,57.99
2022-10-02T07:16:16.029Z,57.64
2022-10-02T07:18:42.421Z,57.82
2022-10-02T07:21:08.776Z,57.74
2022-10-02T07:23:35.141Z,57.90
2022-10-02T07:26:01.511Z,57.77
2022-10-02T07:28:27.889Z,57.76
2022-10-02T07:30:54.296Z,57.77
2022-10-02T07:33:20.656Z,57.74
2022-10-02T07:35:47.008Z,57.75
2022-10-02T07:38:13.381Z,57.80
2022-10-02T07:40:39.767Z,57.77
2022-10-02T07:43:06.124Z,57.92
2022-10-02T07:45:32.555Z,57.71
2022-10-02T07:47:58.973Z,57.75
2022-10-02T07:50:25.328Z,57.84
2022-10-02T07:52:51.691Z,57.78
2022-10-02T07:55:18.055Z,57.84
2022-10-02T07:57:44.416Z,57.85
2022-10-02T08:00:10.779Z,57.93
2022-10-02T08:02:37.150Z,58.02
2022-10-02T08:05:03.515Z,57.98
2022-10-02T08:07:29.883Z,58.01
2022-10-02T08:09:56.266Z,57.93
2022-10-02T08:12:22.634Z,57.87
2022-10-02T08:14:49.012Z,57.94
2022-10-02T08:17:15.378Z,57.62
2022-10-02T08:19:41.739Z,57.66
2022-10-02T08:22:08.162Z,57.61
2022-10-02T08:24:34.532Z,57.80
2022-10-02T08:27:00.889Z,57.68
2022-10-02T08:29:27.251Z,57.66
2022-10-02T08:31:53.704Z,57.52
2022-10-02T08:34:20.087Z,57.55
2022-10-02T08:36:46.450Z,57.58
2022-10-02T08:39:12.907Z,57.53
2022-10-02T08:41:39.270Z,57.65
2022-10-02T08:44:05.635Z,57.74
2022-10-02T08:46:32.044Z,57.73
2022-10-02T08:48:58.420Z,57.78
2022-10-02T08:51:24.784Z,57.56
2022-10-02T08:53:51.236Z,57.57
2022-10-02T08:56:20.181Z,57.57
2022-10-02T08:58:46.814Z,57.46
2022-10-02T09:01:13.214Z,57.46
2022-10-02T09:03:39.593Z,57.66
2022-10-02T09:06:05.978Z,57.51
2022-10-02T09:08:32.344Z,57.50
2022-10-02T09:10:58.712Z,57.49
2022-10-02T09:13:25.081Z,57.39
2022-10-02T09:15:51.448Z,57.28
2022-10-02T09:18:17.817Z,57.24
2022-10-02T09:20:44.183Z,57.23
2022-10-02T09:23:10.543Z,57.09
2022-10-02T09:25:36.940Z,57.06
2022-10-02T09:28:03.330Z,57.14
2022-10-02T09:30:29.745Z,57.23
2022-10-02T09:32:56.109Z,57.25
2022-10-02T09:35:22.475Z,57.09
2022-10-02T09:37:48.841Z,57.02
2022-10-02T09:40:15.213Z,57.09
2022-10-02T09:42:41.578Z,56.92
2022-10-02T09:45:07.958Z,57.03
2022-10-02T09:47:34.324Z,56.86
2022-10-02T09:50:00.711Z,56.81
2022-10-02T09:52:27.073Z,56.89
2022-10-02T09:54:53.446Z,56.78
2022-10-02T09:57:19.825Z,56.64
2022-10-02T09:59:46.182Z,56.71
2022-10-02T10:02:12.644Z,56.46
2022-10-02T10:05:01.232Z,56.49
2022-10-02T10:07:25.431Z,56.75
2022-10-02T10:09:51.814Z,57.00
2022-10-02T10:12:18.199Z,56.83
2022-10-02T10:14:44.586Z,56.97
2022-10-02T10:17:10.969Z,57.02
2022-10-02T10:19:37.352Z,56.96
2022-10-02T10:22:03.746Z,56.69
2022-10-02T10:24:30.122Z,56.71
2022-10-02T10:26:56.484Z,56.61
2022-10-02T10:29:22.860Z,56.53
2022-10-02T10:31:49.313Z,56.58
2022-10-02T10:34:15.713Z,56.65
2022-10-02T10:36:46.498Z,56.56
2022-10-02T10:39:13.160Z,56.41
2022-10-02T10:41:39.899Z,56.55
2022-10-02T10:44:06.444Z,56.50
2022-10-02T10:46:32.829Z,56.38
2022-10-02T10:48:59.210Z,56.52
2022-10-02T10:51:25.593Z,56.27
2022-10-02T10:53:51.964Z,56.18
2022-10-02T10:56:18.348Z,56.23
2022-10-02T10:58:44.717Z,56.12
2022-10-02T11:01:11.221Z,56.06
2022-10-02T11:03:37.658Z,56.25
2022-10-02T11:06:04.040Z,56.11
2022-10-02T11:08:30.430Z,56.25
2022-10-02T11:10:56.816Z,56.40
2022-10-02T11:13:23.194Z,56.63
2022-10-02T11:15:49.570Z,56.55
2022-10-02T11:18:15.946Z,56.56
2022-10-02T11:20:42.324Z,56.53
2022-10-02T11:23:08.693Z,56.62
2022-10-02T11:25:35.063Z,56.69
2022-10-02T11:28:01.495Z,56.65
2022-10-02T11:30:27.888Z,56.71
2022-10-02T11:32:54.341Z,56.71
2022-10-02T11:35:20.715Z,56.65
2022-10-02T11:37:47.076Z,56.76
2022-10-02T11:40:13.458Z,57.36
2022-10-02T11:42:39.835Z,57.44
2022-10-02T11:45:06.209Z,57.55
2022-10-02T11:47:32.586Z,57.64
2022-10-02T11:49:58.964Z,57.61
2022-10-02T11:52:25.328Z,57.57
2022-10-02T11:54:51.706Z,57.72
2022-10-02T11:57:18.082Z,57.69
2022-10-02T11:59:44.465Z,57.79
2022-10-02T12:02:14.427Z,57.65
2022-10-02T12:04:42.655Z,57.67
2022-10-02T12:07:09.187Z,57.65
2022-10-02T12:09:35.563Z,57.64
2022-10-02T12:12:01.941Z,57.73
2022-10-02T12:14:28.316Z,57.61
2022-10-02T12:16:54.724Z,57.63
2022-10-02T12:19:21.143Z,57.33
2022-10-02T12:21:47.501Z,57.35
2022-10-02T12:24:13.886Z,57.30
2022-10-02T12:26:40.265Z,57.19
2022-10-02T12:29:06.629Z,57.02
2022-10-02T12:31:33.031Z,56.85
2022-10-02T12:33:59.454Z,56.78
2022-10-02T12:36:25.837Z,56.81
2022-10-02T12:38:52.200Z,56.74
2022-10-02T12:41:18.579Z,56.65
2022-10-02T12:43:44.956Z,56.70
2022-10-02T12:46:11.354Z,56.53
2022-10-02T12:48:37.754Z,56.52
2022-10-02T12:51:05.609Z,56.53
2022-10-02T12:53:32.281Z,56.53
2022-10-02T12:55:58.660Z,56.48
2022-10-02T12:58:25.027Z,56.46
2022-10-02T13:00:51.435Z,56.59
2022-10-02T13:03:17.870Z,56.28
2022-10-02T13:05:46.778Z,56.44
2022-10-02T13:08:13.461Z,56.25
2022-10-02T13:10:39.836Z,56.20
2022-10-02T13:13:06.200Z,56.28
2022-10-02T13:15:32.671Z,56.18
2022-10-02T13:17:59.040Z,56.31
2022-10-02T13:20:25.419Z,56.18
2022-10-02T13:22:51.795Z,56.21
2022-10-02T13:25:18.172Z,56.24
2022-10-02T13:27:44.531Z,56.08
2022-10-02T13:30:10.891Z,56.28
2022-10-02T13:32:37.274Z,56.17
2022-10-02T13:35:03.745Z,56.16
2022-10-02T13:37:30.137Z,56.28
2022-10-02T13:39:56.527Z,56.26
2022-10-02T13:42:22.918Z,56.27
2022-10-02T13:44:52.078Z,56.26
2022-10-02T13:47:18.458Z,56.05
2022-10-02T13:49:44.841Z,55.91
2022-10-02T13:52:11.227Z,55.99
2022-10-02T13:54:37.598Z,55.78
2022-10-02T13:57:03.964Z,55.93
2022-10-02T13:59:30.357Z,55.92
2022-10-02T14:01:56.734Z,56.06
2022-10-02T14:04:23.115Z,55.86
2022-10-02T14:06:49.496Z,55.88
2022-10-02T14:09:15.867Z,55.78
2022-10-02T14:11:42.246Z,55.84
2022-10-02T14:14:08.612Z,55.73
2022-10-02T14:16:35.067Z,55.73
2022-10-02T14:19:01.487Z,55.69
2022-10-02T14:21:27.860Z,55.85
2022-10-02T14:23:54.236Z,55.88
2022-10-02T14:26:20.609Z,55.77
2022-10-02T14:28:46.985Z,55.77
2022-10-02T14:31:13.437Z,55.74
2022-10-02T14:33:39.907Z,55.67
2022-10-02T14:36:06.292Z,55.85
2022-10-02T14:38:32.678Z,55.85
2022-10-02T14:40:59.045Z,55.70
2022-10-02T14:43:25.412Z,55.78
2022-10-02T14:45:51.855Z,55.81
2022-10-02T14:48:18.333Z,55.98
2022-10-02T14:50:44.711Z,55.95
2022-10-02T14:53:11.092Z,55.79
2022-10-02T14:55:37.477Z,56.00
2022-10-02T14:58:03.850Z,56.05
2022-10-02T15:00:30.229Z,56.05
2022-10-02T15:02:56.600Z,55.85
2022-10-02T15:05:22.964Z,55.69
2022-10-02T15:07:49.338Z,55.72
2022-10-02T15:10:15.722Z,55.68
2022-10-02T15:12:42.089Z,55.96
2022-10-02T15:15:08.463Z,55.86
2022-10-02T15:17:34.842Z,55.70
2022-10-02T15:20:01.333Z,55.78
2022-10-02T15:22:27.735Z,55.60
2022-10-02T15:24:54.092Z,55.72
2022-10-02T15:27:20.558Z,55.89
2022-10-02T15:29:46.933Z,55.67
2022-10-02T15:32:13.301Z,55.78
2022-10-02T15:34:39.697Z,56.01
2022-10-02T15:37:06.081Z,55.78
2022-10-02T15:39:32.447Z,55.71
2022-10-02T15:41:58.830Z,55.90
2022-10-02T15:44:25.211Z,55.71
2022-10-02T15:46:51.576Z,55.74
2022-10-02T15:49:17.956Z,55.89
2022-10-02T15:51:44.330Z,55.86
2022-10-02T15:54:10.694Z,55.83
2022-10-02T15:56:37.303Z,55.87
2022-10-02T15:59:03.925Z,55.77
2022-10-02T16:01:30.300Z,56.00
2022-10-02T16:03:56.773Z,55.73
2022-10-02T16:06:23.142Z,55.81
2022-10-02T16:08:49.518Z,55.93
2022-10-02T16:11:15.907Z,55.91
2022-10-02T16:13:47.017Z,56.05
2022-10-02T16:16:13.722Z,56.06
2022-10-02T16:18:40.134Z,56.00
2022-10-02T16:21:06.510Z,56.12
2022-10-02T16:23:32.886Z,56.19
2022-10-02T16:25:59.277Z,56.13
2022-10-02T16:28:25.680Z,56.29
2022-10-02T16:30:52.136Z,56.04
2022-10-02T16:33:18.514Z,56.12
2022-10-02T16:35:44.876Z,56.59
2022-10-02T16:38:11.263Z,56.63
2022-10-02T16:40:37.645Z,56.66
2022-10-02T16:43:04.008Z,56.66
2022-10-02T16:45:30.393Z,56.47
2022-10-02T16:47:56.834Z,56.54
2022-10-02T16:50:23.210Z,56.72
2022-10-02T16:52:49.581Z,56.83
2022-10-02T16:55:15.944Z,56.98
2022-10-02T16:57:42.323Z,57.21
2022-10-02T17:00:08.685Z,57.09
2022-10-02T17:02:35.117Z,57.95
2022-10-02T17:05:01.507Z,58.90
2022-10-02T17:07:27.964Z,59.67
2022-10-02T17:09:54.339Z,60.38
2022-10-02T17:12:20.756Z,61.09
2022-10-02T17:14:47.137Z,60.62
2022-10-02T17:17:13.504Z,60.14
2022-10-02T17:19:39.860Z,59.83
2022-10-02T17:22:06.243Z,59.73
2022-10-02T17:24:32.633Z,59.10
2022-10-02T17:26:59.006Z,58.87
2022-10-02T17:29:25.397Z,58.97
2022-10-02T17:31:51.871Z,58.79
2022-10-02T17:34:18.286Z,58.65
2022-10-02T17:36:44.669Z,58.51
2022-10-02T17:39:11.038Z,58.42
2022-10-02T17:41:37.427Z,58.29
2022-10-02T17:44:03.809Z,58.35
2022-10-02T17:46:30.284Z,58.46
2022-10-02T17:48:56.662Z,58.49
2022-10-02T17:51:51.273Z,58.82
2022-10-02T17:54:09.396Z,58.75
2022-10-02T17:56:35.766Z,58.64
2022-10-02T17:59:02.144Z,58.73
2022-10-02T18:01:28.595Z,58.60
2022-10-02T18:03:55.129Z,58.60
2022-10-02T18:06:21.509Z,58.65
2022-10-02T18:08:47.892Z,58.56
2022-10-02T18:11:14.266Z,58.53
2022-10-02T18:13:40.635Z,58.48
2022-10-02T18:16:07.104Z,58.47
2022-10-02T18:18:33.505Z,58.51
2022-10-02T18:20:59.932Z,58.53
2022-10-02T18:23:26.320Z,58.52
2022-10-02T18:25:52.692Z,58.44
2022-10-02T18:28:19.105Z,58.42
2022-10-02T18:30:45.503Z,58.35
2022-10-02T18:33:11.868Z,58.27
2022-10-02T18:35:38.246Z,58.42
2022-10-02T18:38:04.622Z,58.26
2022-10-02T18:40:31.017Z,58.20
2022-10-02T18:42:57.400Z,58.13
2022-10-02T18:45:23.812Z,58.27
2022-10-02T18:47:50.245Z,58.43
2022-10-02T18:50:16.638Z,58.11
2022-10-02T18:52:43.017Z,57.99
2022-10-02T18:55:09.393Z,58.08
2022-10-02T18:57:35.770Z,58.30
2022-10-02T19:00:02.153Z,58.57
2022-10-02T19:02:28.686Z,58.43
2022-10-02T19:04:55.156Z,58.37
2022-10-02T19:07:21.520Z,58.41
2022-10-02T19:09:47.892Z,58.23
2022-10-02T19:12:14.261Z,58.38
2022-10-02T19:14:40.627Z,58.14
2022-10-02T19:17:07.008Z,58.36
2022-10-02T19:19:33.374Z,58.16
2022-10-02T19:21:59.739Z,58.13
2022-10-02T19:24:26.128Z,58.27
2022-10-02T19:26:52.495Z,58.15
2022-10-02T19:29:18.863Z,58.21
2022-10-02T19:31:45.304Z,58.18
2022-10-02T19:34:11.734Z,58.31
2022-10-02T19:36:38.105Z,58.06
2022-10-02T19:39:04.484Z,58.01
2022-10-02T19:41:30.873Z,58.19
2022-10-02T19:43:57.249Z,58.09
2022-10-02T19:46:23.636Z,58.19
2022-10-02T19:48:50.007Z,58.00
2022-10-02T19:51:16.410Z,58.08
2022-10-02T19:53:42.878Z,57.90
2022-10-02T19:56:09.257Z,58.02
2022-10-02T19:58:35.630Z,57.98
2022-10-02T20:01:02.019Z,57.92
2022-10-02T20:03:28.445Z,58.04
2022-10-02T20:05:54.824Z,57.98
2022-10-02T20:08:21.287Z,58.06
2022-10-02T20:10:47.662Z,58.04
2022-10-02T20:13:14.038Z,58.06
2022-10-02T20:15:40.416Z,58.10
2022-10-02T20:18:06.781Z,58.14
2022-10-02T20:20:33.151Z,58.19
2022-10-02T20:22:59.528Z,57.91
2022-10-02T20:25:25.888Z,57.93
2022-10-02T20:27:52.302Z,57.95
2022-10-02T20:30:18.701Z,57.90
2022-10-02T20:32:45.066Z,57.94
2022-10-02T20:35:11.423Z,57.78
2022-10-02T20:37:37.802Z,57.86
2022-10-02T20:40:04.176Z,57.68
2022-10-02T20:42:30.563Z,57.73
2022-10-02T20:44:56.924Z,57.92
2022-10-02T20:47:23.286Z,57.83
2022-10-02T20:49:49.670Z,57.78
2022-10-02T20:52:16.077Z,57.69
2022-10-02T20:54:42.446Z,57.77
2022-10-02T20:57:13.881Z,57.87
2022-10-02T20:59:41.012Z,57.76
2022-10-02T21:02:07.424Z,57.73
2022-10-02T21:04:33.811Z,57.60
2022-10-02T21:07:05.714Z,57.65
2022-10-02T21:09:33.293Z,57.58
2022-10-02T21:11:59.704Z,57.70
2022-10-02T21:14:26.070Z,57.44
2022-10-02T21:16:52.533Z,57.55
2022-10-02T21:19:18.950Z,57.59
2022-10-02T21:21:45.334Z,57.62
2022-10-02T21:24:11.702Z,57.59
2022-10-02T21:26:38.299Z,57.54
2022-10-02T21:29:04.811Z,56.53
2022-10-02T21:31:31.181Z,55.79
2022-10-02T21:33:57.556Z,55.45
2022-10-02T21:36:23.927Z,55.55
2022-10-02T21:38:50.398Z,55.28
2022-10-02T21:41:16.760Z,55.23
2022-10-02T21:43:43.118Z,55.08
2022-10-02T21:46:09.542Z,55.10
2022-10-02T21:48:35.961Z,55.00
2022-10-02T21:51:02.321Z,54.90
2022-10-02T21:53:28.694Z,55.12
2022-10-02T21:55:55.059Z,55.11
2022-10-02T21:58:21.430Z,54.98
2022-10-02T22:00:47.791Z,54.89
2022-10-02T22:03:14.154Z,54.92
2022-10-02T22:05:40.599Z,54.88
2022-10-02T22:08:07.015Z,54.85
2022-10-02T22:10:33.396Z,54.90
2022-10-02T22:12:59.764Z,54.83
2022-10-02T22:15:26.129Z,54.93
2022-10-02T22:17:52.510Z,54.86
2022-10-02T22:20:18.883Z,54.83
2022-10-02T22:22:45.248Z,54.75
2022-10-02T22:25:11.636Z,54.68
2022-10-02T22:27:38.013Z,54.76
2022-10-02T22:30:04.374Z,54.74
2022-10-02T22:32:30.832Z,54.54
2022-10-02T22:34:57.204Z,54.67
2022-10-02T22:37:23.565Z,54.75
2022-10-02T22:39:49.939Z,55.06
2022-10-02T22:42:16.306Z,55.29
2022-10-02T22:44:42.659Z,55.17
2022-10-02T22:49:35.424Z,55.47
2022-10-02T22:52:01.780Z,55.67
2022-10-02T22:54:28.170Z,55.78
2022-10-02T22:56:54.537Z,55.74
2022-10-02T22:59:20.898Z,55.69
2022-10-02T23:01:47.293Z,55.66
2022-10-02T23:04:13.740Z,55.77
2022-10-02T23:06:40.098Z,55.70
2022-10-02T23:09:06.482Z,55.93
2022-10-02T23:11:32.841Z,55.84
2022-10-02T23:13:59.197Z,55.88
2022-10-02T23:16:25.592Z,55.86
2022-10-02T23:18:51.971Z,55.67
2022-10-02T23:21:18.327Z,55.85
2022-10-02T23:23:44.698Z,55.62
2022-10-02T23:26:11.069Z,55.93
2022-10-02T23:28:37.435Z,55.83
2022-10-02T23:31:03.853Z,55.85
2022-10-02T23:33:30.249Z,56.07
2022-10-02T23:35:56.605Z,55.97
2022-10-02T23:38:22.965Z,56.10
2022-10-02T23:40:49.339Z,56.02
2022-10-02T23:43:15.710Z,56.03
2022-10-02T23:45:42.077Z,56.16
2022-10-02T23:48:08.432Z,56.15
2022-10-02T23:50:34.817Z,55.98
2022-10-02T23:53:01.172Z,56.03
2022-10-02T23:55:27.540Z,56.07
2022-10-02T23:57:53.898Z,55.96
